sensor_id;sensor_type;location;lat;lon;timestamp;P1;durP1;ratioP1;P2;durP2;ratioP2
52316;SDS011;38725;41.994;21.458;2022-07-10T00:00:17;22.83;;;14.38;;
52316;SDS011;38725;41.994;21.458;2022-07-10T00:02:46;26.23;;;14.95;;
52316;SDS011;38725;41.994;21.458;2022-07-10T00:05:12;25.50;;;14.57;;
52316;SDS011;38725;41.994;21.458;2022-07-10T00:07:38;21.60;;;13.63;;
52316;SDS011;38725;41.994;21.458;2022-07-10T00:10:05;19.45;;;13.32;;
52316;SDS011;38725;41.994;21.458;2022-07-10T00:12:31;19.45;;;13.15;;
52316;SDS011;38725;41.994;21.458;2022-07-10T00:14:57;25.52;;;14.30;;
52316;SDS011;38725;41.994;21.458;2022-07-10T00:17:24;22.42;;;14.25;;
52316;SDS011;38725;41.994;21.458;2022-07-10T00:19:51;21.77;;;14.50;;
52316;SDS011;38725;41.994;21.458;2022-07-10T00:22:17;27.17;;;14.30;;
52316;SDS011;38725;41.994;21.458;2022-07-10T00:24:43;24.00;;;15.57;;
52316;SDS011;38725;41.994;21.458;2022-07-10T00:27:09;23.60;;;14.27;;
52316;SDS011;38725;41.994;21.458;2022-07-10T00:29:35;23.05;;;14.45;;
52316;SDS011;38725;41.994;21.458;2022-07-10T00:32:02;22.05;;;14.73;;
52316;SDS011;38725;41.994;21.458;2022-07-10T00:34:28;25.98;;;14.23;;
52316;SDS011;38725;41.994;21.458;2022-07-10T00:36:54;22.58;;;13.68;;
52316;SDS011;38725;41.994;21.458;2022-07-10T00:39:20;20.00;;;13.35;;
52316;SDS011;38725;41.994;21.458;2022-07-10T00:41:46;29.30;;;14.88;;
52316;SDS011;38725;41.994;21.458;2022-07-10T00:44:12;20.88;;;13.88;;
52316;SDS011;38725;41.994;21.458;2022-07-10T00:46:39;24.55;;;14.82;;
52316;SDS011;38725;41.994;21.458;2022-07-10T00:49:05;25.10;;;15.05;;
52316;SDS011;38725;41.994;21.458;2022-07-10T00:51:31;26.88;;;16.67;;
52316;SDS011;38725;41.994;21.458;2022-07-10T00:53:58;26.88;;;15.38;;
52316;SDS011;38725;41.994;21.458;2022-07-10T00:56:26;22.08;;;14.57;;
52316;SDS011;38725;41.994;21.458;2022-07-10T00:58:53;23.73;;;13.63;;
52316;SDS011;38725;41.994;21.458;2022-07-10T01:01:19;21.67;;;15.07;;
52316;SDS011;38725;41.994;21.458;2022-07-10T01:03:47;19.63;;;13.82;;
52316;SDS011;38725;41.994;21.458;2022-07-10T01:06:14;22.98;;;13.93;;
52316;SDS011;38725;41.994;21.458;2022-07-10T01:08:41;22.08;;;15.60;;
52316;SDS011;38725;41.994;21.458;2022-07-10T01:11:07;24.05;;;14.52;;
52316;SDS011;38725;41.994;21.458;2022-07-10T01:13:33;22.77;;;14.88;;
52316;SDS011;38725;41.994;21.458;2022-07-10T01:15:59;26.30;;;15.38;;
52316;SDS011;38725;41.994;21.458;2022-07-10T01:18:25;21.10;;;14.38;;
52316;SDS011;38725;41.994;21.458;2022-07-10T01:20:52;22.00;;;14.52;;
52316;SDS011;38725;41.994;21.458;2022-07-10T01:23:19;22.35;;;15.75;;
52316;SDS011;38725;41.994;21.458;2022-07-10T01:25:46;21.50;;;14.38;;
52316;SDS011;38725;41.994;21.458;2022-07-10T01:28:12;27.98;;;15.40;;
52316;SDS011;38725;41.994;21.458;2022-07-10T01:30:39;20.65;;;14.32;;
52316;SDS011;38725;41.994;21.458;2022-07-10T01:33:05;21.17;;;13.80;;
52316;SDS011;38725;41.994;21.458;2022-07-10T01:35:31;25.23;;;14.43;;
52316;SDS011;38725;41.994;21.458;2022-07-10T01:37:57;22.55;;;14.52;;
52316;SDS011;38725;41.994;21.458;2022-07-10T01:40:23;26.77;;;15.35;;
52316;SDS011;38725;41.994;21.458;2022-07-10T01:42:49;23.45;;;14.75;;
52316;SDS011;38725;41.994;21.458;2022-07-10T01:45:16;22.50;;;13.88;;
52316;SDS011;38725;41.994;21.458;2022-07-10T01:47:43;20.13;;;13.27;;
52316;SDS011;38725;41.994;21.458;2022-07-10T01:50:09;20.15;;;14.10;;
52316;SDS011;38725;41.994;21.458;2022-07-10T01:52:35;19.15;;;14.15;;
52316;SDS011;38725;41.994;21.458;2022-07-10T01:55:03;24.98;;;13.98;;
52316;SDS011;38725;41.994;21.458;2022-07-10T01:57:29;19.13;;;13.77;;
52316;SDS011;38725;41.994;21.458;2022-07-10T01:59:55;19.98;;;13.23;;
52316;SDS011;38725;41.994;21.458;2022-07-10T02:02:21;26.65;;;14.73;;
52316;SDS011;38725;41.994;21.458;2022-07-10T02:04:47;21.42;;;13.35;;
52316;SDS011;38725;41.994;21.458;2022-07-10T02:07:14;24.02;;;13.45;;
52316;SDS011;38725;41.994;21.458;2022-07-10T02:09:41;28.40;;;16.88;;
52316;SDS011;38725;41.994;21.458;2022-07-10T02:12:11;22.95;;;15.27;;
52316;SDS011;38725;41.994;21.458;2022-07-10T02:14:38;23.13;;;13.70;;
52316;SDS011;38725;41.994;21.458;2022-07-10T02:17:05;21.50;;;14.23;;
52316;SDS011;38725;41.994;21.458;2022-07-10T02:19:32;23.45;;;14.23;;
52316;SDS011;38725;41.994;21.458;2022-07-10T02:21:58;20.90;;;14.32;;
52316;SDS011;38725;41.994;21.458;2022-07-10T02:24:24;20.17;;;13.80;;
52316;SDS011;38725;41.994;21.458;2022-07-10T02:26:51;18.38;;;14.02;;
52316;SDS011;38725;41.994;21.458;2022-07-10T02:29:17;24.10;;;14.38;;
52316;SDS011;38725;41.994;21.458;2022-07-10T02:31:44;21.23;;;13.82;;
52316;SDS011;38725;41.994;21.458;2022-07-10T02:34:11;20.23;;;13.57;;
52316;SDS011;38725;41.994;21.458;2022-07-10T02:36:38;18.00;;;13.20;;
52316;SDS011;38725;41.994;21.458;2022-07-10T02:39:05;24.42;;;13.68;;
52316;SDS011;38725;41.994;21.458;2022-07-10T02:41:31;18.27;;;12.70;;
52316;SDS011;38725;41.994;21.458;2022-07-10T02:43:57;19.20;;;12.60;;
52316;SDS011;38725;41.994;21.458;2022-07-10T02:46:24;18.50;;;12.77;;
52316;SDS011;38725;41.994;21.458;2022-07-10T02:48:50;18.30;;;12.50;;
52316;SDS011;38725;41.994;21.458;2022-07-10T02:51:16;20.08;;;13.55;;
52316;SDS011;38725;41.994;21.458;2022-07-10T02:53:42;19.75;;;13.65;;
52316;SDS011;38725;41.994;21.458;2022-07-10T02:56:08;17.80;;;12.73;;
52316;SDS011;38725;41.994;21.458;2022-07-10T02:58:35;21.50;;;12.30;;
52316;SDS011;38725;41.994;21.458;2022-07-10T03:01:03;21.42;;;12.90;;
52316;SDS011;38725;41.994;21.458;2022-07-10T03:03:29;19.45;;;12.60;;
52316;SDS011;38725;41.994;21.458;2022-07-10T03:05:55;23.75;;;13.05;;
52316;SDS011;38725;41.994;21.458;2022-07-10T03:08:21;20.00;;;13.32;;
52316;SDS011;38725;41.994;21.458;2022-07-10T03:10:47;24.15;;;12.90;;
52316;SDS011;38725;41.994;21.458;2022-07-10T03:13:14;19.98;;;12.50;;
52316;SDS011;38725;41.994;21.458;2022-07-10T03:15:40;20.48;;;10.90;;
52316;SDS011;38725;41.994;21.458;2022-07-10T03:18:06;17.73;;;12.25;;
52316;SDS011;38725;41.994;21.458;2022-07-10T03:20:32;19.20;;;12.90;;
52316;SDS011;38725;41.994;21.458;2022-07-10T03:22:58;17.42;;;11.32;;
52316;SDS011;38725;41.994;21.458;2022-07-10T03:25:24;19.50;;;11.25;;
52316;SDS011;38725;41.994;21.458;2022-07-10T03:27:51;19.05;;;13.30;;
52316;SDS011;38725;41.994;21.458;2022-07-10T03:30:17;17.33;;;11.35;;
52316;SDS011;38725;41.994;21.458;2022-07-10T03:32:45;16.83;;;11.75;;
52316;SDS011;38725;41.994;21.458;2022-07-10T03:35:11;18.83;;;13.02;;
52316;SDS011;38725;41.994;21.458;2022-07-10T03:37:37;18.38;;;11.93;;
52316;SDS011;38725;41.994;21.458;2022-07-10T03:40:03;17.58;;;12.25;;
52316;SDS011;38725;41.994;21.458;2022-07-10T03:42:30;16.90;;;12.35;;
52316;SDS011;38725;41.994;21.458;2022-07-10T03:44:56;19.20;;;11.88;;
52316;SDS011;38725;41.994;21.458;2022-07-10T03:47:22;18.90;;;12.48;;
52316;SDS011;38725;41.994;21.458;2022-07-10T03:49:48;20.27;;;12.23;;
52316;SDS011;38725;41.994;21.458;2022-07-10T03:52:15;18.52;;;11.98;;
52316;SDS011;38725;41.994;21.458;2022-07-10T03:54:41;17.58;;;11.25;;
52316;SDS011;38725;41.994;21.458;2022-07-10T03:57:07;17.10;;;11.73;;
52316;SDS011;38725;41.994;21.458;2022-07-10T03:59:51;19.73;;;12.60;;
52316;SDS011;38725;41.994;21.458;2022-07-10T04:02:18;16.92;;;10.48;;
52316;SDS011;38725;41.994;21.458;2022-07-10T04:04:44;16.08;;;10.48;;
52316;SDS011;38725;41.994;21.458;2022-07-10T04:07:10;14.90;;;10.50;;
52316;SDS011;38725;41.994;21.458;2022-07-10T04:09:37;14.30;;;9.88;;
52316;SDS011;38725;41.994;21.458;2022-07-10T04:12:04;14.75;;;9.93;;
52316;SDS011;38725;41.994;21.458;2022-07-10T04:14:30;17.15;;;9.23;;
52316;SDS011;38725;41.994;21.458;2022-07-10T04:16:56;13.85;;;9.52;;
52316;SDS011;38725;41.994;21.458;2022-07-10T04:19:23;16.70;;;9.55;;
52316;SDS011;38725;41.994;21.458;2022-07-10T04:21:49;11.50;;;8.02;;
52316;SDS011;38725;41.994;21.458;2022-07-10T04:24:15;10.27;;;6.57;;
52316;SDS011;38725;41.994;21.458;2022-07-10T04:26:42;12.80;;;6.93;;
52316;SDS011;38725;41.994;21.458;2022-07-10T04:29:08;11.27;;;6.57;;
52316;SDS011;38725;41.994;21.458;2022-07-10T04:31:34;7.47;;;4.45;;
52316;SDS011;38725;41.994;21.458;2022-07-10T04:34:00;6.32;;;3.72;;
52316;SDS011;38725;41.994;21.458;2022-07-10T04:36:27;8.18;;;5.68;;
52316;SDS011;38725;41.994;21.458;2022-07-10T04:38:55;10.60;;;6.68;;
52316;SDS011;38725;41.994;21.458;2022-07-10T04:41:21;11.38;;;7.05;;
52316;SDS011;38725;41.994;21.458;2022-07-10T04:43:47;13.60;;;6.80;;
52316;SDS011;38725;41.994;21.458;2022-07-10T04:46:13;10.82;;;7.40;;
52316;SDS011;38725;41.994;21.458;2022-07-10T04:48:40;16.58;;;7.55;;
52316;SDS011;38725;41.994;21.458;2022-07-10T04:51:06;12.30;;;7.65;;
52316;SDS011;38725;41.994;21.458;2022-07-10T04:53:32;16.10;;;8.30;;
52316;SDS011;38725;41.994;21.458;2022-07-10T04:55:58;17.77;;;10.73;;
52316;SDS011;38725;41.994;21.458;2022-07-10T04:58:25;15.02;;;7.35;;
52316;SDS011;38725;41.994;21.458;2022-07-10T05:00:51;14.88;;;7.43;;
52316;SDS011;38725;41.994;21.458;2022-07-10T05:03:17;12.93;;;5.65;;
52316;SDS011;38725;41.994;21.458;2022-07-10T05:05:43;8.27;;;3.55;;
52316;SDS011;38725;41.994;21.458;2022-07-10T05:08:09;7.38;;;2.97;;
52316;SDS011;38725;41.994;21.458;2022-07-10T05:10:35;6.53;;;2.67;;
52316;SDS011;38725;41.994;21.458;2022-07-10T05:13:01;6.53;;;2.38;;
52316;SDS011;38725;41.994;21.458;2022-07-10T05:15:28;4.65;;;2.30;;
52316;SDS011;38725;41.994;21.458;2022-07-10T05:17:54;8.63;;;2.63;;
52316;SDS011;38725;41.994;21.458;2022-07-10T05:20:20;7.57;;;2.65;;
52316;SDS011;38725;41.994;21.458;2022-07-10T05:22:46;3.22;;;2.30;;
52316;SDS011;38725;41.994;21.458;2022-07-10T05:25:12;5.97;;;2.58;;
52316;SDS011;38725;41.994;21.458;2022-07-10T05:27:38;4.45;;;2.05;;
52316;SDS011;38725;41.994;21.458;2022-07-10T05:30:05;5.28;;;2.08;;
52316;SDS011;38725;41.994;21.458;2022-07-10T05:32:31;3.38;;;1.92;;
52316;SDS011;38725;41.994;21.458;2022-07-10T05:34:57;3.53;;;2.10;;
52316;SDS011;38725;41.994;21.458;2022-07-10T05:37:24;5.60;;;2.08;;
52316;SDS011;38725;41.994;21.458;2022-07-10T05:39:50;3.72;;;2.13;;
52316;SDS011;38725;41.994;21.458;2022-07-10T05:42:16;6.95;;;2.50;;
52316;SDS011;38725;41.994;21.458;2022-07-10T05:44:42;7.47;;;2.28;;
52316;SDS011;38725;41.994;21.458;2022-07-10T05:47:08;4.95;;;2.60;;
52316;SDS011;38725;41.994;21.458;2022-07-10T05:49:34;7.05;;;2.20;;
52316;SDS011;38725;41.994;21.458;2022-07-10T05:52:01;3.55;;;2.20;;
52316;SDS011;38725;41.994;21.458;2022-07-10T05:54:27;7.65;;;1.95;;
52316;SDS011;38725;41.994;21.458;2022-07-10T05:56:54;5.65;;;2.30;;
52316;SDS011;38725;41.994;21.458;2022-07-10T05:59:20;3.28;;;2.00;;
52316;SDS011;38725;41.994;21.458;2022-07-10T06:01:46;7.75;;;1.92;;
52316;SDS011;38725;41.994;21.458;2022-07-10T06:04:13;3.72;;;1.88;;
52316;SDS011;38725;41.994;21.458;2022-07-10T06:06:39;5.45;;;2.22;;
52316;SDS011;38725;41.994;21.458;2022-07-10T06:09:05;6.47;;;1.90;;
52316;SDS011;38725;41.994;21.458;2022-07-10T06:11:31;4.55;;;2.53;;
52316;SDS011;38725;41.994;21.458;2022-07-10T06:13:57;4.70;;;2.22;;
52316;SDS011;38725;41.994;21.458;2022-07-10T06:16:24;7.90;;;2.08;;
52316;SDS011;38725;41.994;21.458;2022-07-10T06:18:50;4.90;;;2.10;;
52316;SDS011;38725;41.994;21.458;2022-07-10T06:21:16;4.40;;;2.75;;
52316;SDS011;38725;41.994;21.458;2022-07-10T06:23:46;7.00;;;2.05;;
52316;SDS011;38725;41.994;21.458;2022-07-10T06:26:13;4.57;;;2.20;;
52316;SDS011;38725;41.994;21.458;2022-07-10T06:28:39;4.43;;;1.88;;
52316;SDS011;38725;41.994;21.458;2022-07-10T06:31:05;5.32;;;1.75;;
52316;SDS011;38725;41.994;21.458;2022-07-10T06:33:31;4.30;;;2.17;;
52316;SDS011;38725;41.994;21.458;2022-07-10T06:35:57;5.35;;;2.30;;
52316;SDS011;38725;41.994;21.458;2022-07-10T06:38:24;5.85;;;2.03;;
52316;SDS011;38725;41.994;21.458;2022-07-10T06:40:50;4.07;;;1.92;;
52316;SDS011;38725;41.994;21.458;2022-07-10T06:43:17;11.50;;;1.90;;
52316;SDS011;38725;41.994;21.458;2022-07-10T06:45:43;4.68;;;1.90;;
52316;SDS011;38725;41.994;21.458;2022-07-10T06:48:10;4.78;;;1.77;;
52316;SDS011;38725;41.994;21.458;2022-07-10T06:50:36;3.55;;;1.88;;
52316;SDS011;38725;41.994;21.458;2022-07-10T06:53:03;5.40;;;1.90;;
52316;SDS011;38725;41.994;21.458;2022-07-10T06:55:29;5.25;;;1.77;;
52316;SDS011;38725;41.994;21.458;2022-07-10T06:57:56;7.07;;;1.92;;
52316;SDS011;38725;41.994;21.458;2022-07-10T07:00:22;4.80;;;1.73;;
52316;SDS011;38725;41.994;21.458;2022-07-10T07:02:48;3.50;;;1.85;;
52316;SDS011;38725;41.994;21.458;2022-07-10T07:05:14;4.43;;;2.38;;
52316;SDS011;38725;41.994;21.458;2022-07-10T07:07:41;5.88;;;2.00;;
52316;SDS011;38725;41.994;21.458;2022-07-10T07:10:07;7.22;;;2.13;;
52316;SDS011;38725;41.994;21.458;2022-07-10T07:12:34;6.85;;;2.00;;
52316;SDS011;38725;41.994;21.458;2022-07-10T07:15:00;8.77;;;2.08;;
52316;SDS011;38725;41.994;21.458;2022-07-10T07:17:26;6.03;;;2.08;;
52316;SDS011;38725;41.994;21.458;2022-07-10T07:19:59;2.97;;;1.70;;
52316;SDS011;38725;41.994;21.458;2022-07-10T07:22:44;6.72;;;1.83;;
52316;SDS011;38725;41.994;21.458;2022-07-10T07:27:55;4.50;;;1.48;;
52316;SDS011;38725;41.994;21.458;2022-07-10T07:30:21;6.30;;;2.22;;
52316;SDS011;38725;41.994;21.458;2022-07-10T07:32:47;5.75;;;1.60;;
52316;SDS011;38725;41.994;21.458;2022-07-10T07:35:14;3.80;;;1.80;;
52316;SDS011;38725;41.994;21.458;2022-07-10T07:40:11;5.78;;;1.63;;
52316;SDS011;38725;41.994;21.458;2022-07-10T07:42:37;4.60;;;1.52;;
52316;SDS011;38725;41.994;21.458;2022-07-10T07:45:04;4.10;;;1.40;;
52316;SDS011;38725;41.994;21.458;2022-07-10T07:47:31;3.95;;;1.40;;
52316;SDS011;38725;41.994;21.458;2022-07-10T07:50:01;3.40;;;1.35;;
52316;SDS011;38725;41.994;21.458;2022-07-10T07:52:28;3.92;;;1.65;;
52316;SDS011;38725;41.994;21.458;2022-07-10T07:54:56;3.72;;;1.42;;
52316;SDS011;38725;41.994;21.458;2022-07-10T07:57:22;5.35;;;1.33;;
52316;SDS011;38725;41.994;21.458;2022-07-10T07:59:48;8.57;;;1.20;;
52316;SDS011;38725;41.994;21.458;2022-07-10T08:02:15;5.30;;;1.48;;
52316;SDS011;38725;41.994;21.458;2022-07-10T08:04:41;3.45;;;1.48;;
52316;SDS011;38725;41.994;21.458;2022-07-10T08:07:07;6.28;;;2.00;;
52316;SDS011;38725;41.994;21.458;2022-07-10T08:09:33;4.72;;;1.50;;
52316;SDS011;38725;41.994;21.458;2022-07-10T08:12:00;4.63;;;1.35;;
52316;SDS011;38725;41.994;21.458;2022-07-10T08:14:26;3.47;;;1.50;;
52316;SDS011;38725;41.994;21.458;2022-07-10T08:16:52;4.88;;;1.30;;
52316;SDS011;38725;41.994;21.458;2022-07-10T08:19:18;2.42;;;1.30;;
52316;SDS011;38725;41.994;21.458;2022-07-10T08:21:44;3.92;;;1.48;;
52316;SDS011;38725;41.994;21.458;2022-07-10T08:24:10;5.90;;;1.80;;
52316;SDS011;38725;41.994;21.458;2022-07-10T08:26:37;3.00;;;1.45;;
52316;SDS011;38725;41.994;21.458;2022-07-10T08:29:03;2.83;;;1.45;;
52316;SDS011;38725;41.994;21.458;2022-07-10T08:31:29;2.80;;;1.60;;
52316;SDS011;38725;41.994;21.458;2022-07-10T08:33:55;6.68;;;1.55;;
52316;SDS011;38725;41.994;21.458;2022-07-10T08:36:21;2.80;;;1.27;;
52316;SDS011;38725;41.994;21.458;2022-07-10T08:38:47;5.65;;;1.50;;
52316;SDS011;38725;41.994;21.458;2022-07-10T08:41:13;1.75;;;1.17;;
52316;SDS011;38725;41.994;21.458;2022-07-10T08:43:40;3.58;;;1.50;;
52316;SDS011;38725;41.994;21.458;2022-07-10T08:46:06;6.72;;;1.52;;
52316;SDS011;38725;41.994;21.458;2022-07-10T08:48:32;4.70;;;1.65;;
52316;SDS011;38725;41.994;21.458;2022-07-10T08:51:01;3.08;;;1.08;;
52316;SDS011;38725;41.994;21.458;2022-07-10T08:53:29;3.05;;;1.20;;
52316;SDS011;38725;41.994;21.458;2022-07-10T08:55:56;2.20;;;1.30;;
52316;SDS011;38725;41.994;21.458;2022-07-10T08:58:23;3.78;;;1.25;;
52316;SDS011;38725;41.994;21.458;2022-07-10T09:00:49;3.92;;;1.42;;
52316;SDS011;38725;41.994;21.458;2022-07-10T09:03:15;4.65;;;1.33;;
52316;SDS011;38725;41.994;21.458;2022-07-10T09:05:41;3.78;;;1.20;;
52316;SDS011;38725;41.994;21.458;2022-07-10T09:10:49;4.20;;;1.35;;
52316;SDS011;38725;41.994;21.458;2022-07-10T09:13:16;2.80;;;1.20;;
52316;SDS011;38725;41.994;21.458;2022-07-10T09:15:47;4.10;;;1.83;;
52316;SDS011;38725;41.994;21.458;2022-07-10T09:18:17;2.70;;;1.30;;
52316;SDS011;38725;41.994;21.458;2022-07-10T09:20:44;4.13;;;1.42;;
52316;SDS011;38725;41.994;21.458;2022-07-10T09:23:21;3.45;;;1.42;;
52316;SDS011;38725;41.994;21.458;2022-07-10T09:25:49;3.30;;;1.52;;
52316;SDS011;38725;41.994;21.458;2022-07-10T09:28:16;2.70;;;1.33;;
52316;SDS011;38725;41.994;21.458;2022-07-10T09:30:43;5.05;;;1.38;;
52316;SDS011;38725;41.994;21.458;2022-07-10T09:33:28;4.88;;;1.70;;
52316;SDS011;38725;41.994;21.458;2022-07-10T09:38:51;5.57;;;1.50;;
52316;SDS011;38725;41.994;21.458;2022-07-10T09:41:26;4.50;;;1.50;;
52316;SDS011;38725;41.994;21.458;2022-07-10T09:46:21;6.63;;;1.88;;
52316;SDS011;38725;41.994;21.458;2022-07-10T09:48:47;3.75;;;1.48;;
52316;SDS011;38725;41.994;21.458;2022-07-10T09:51:14;2.92;;;1.52;;
52316;SDS011;38725;41.994;21.458;2022-07-10T09:53:41;4.93;;;1.55;;
52316;SDS011;38725;41.994;21.458;2022-07-10T09:56:08;5.78;;;1.48;;
52316;SDS011;38725;41.994;21.458;2022-07-10T09:58:35;3.40;;;1.42;;
52316;SDS011;38725;41.994;21.458;2022-07-10T10:01:05;6.65;;;1.90;;
52316;SDS011;38725;41.994;21.458;2022-07-10T10:03:37;4.53;;;1.42;;
52316;SDS011;38725;41.994;21.458;2022-07-10T10:06:10;4.88;;;1.67;;
52316;SDS011;38725;41.994;21.458;2022-07-10T10:08:41;6.75;;;1.70;;
52316;SDS011;38725;41.994;21.458;2022-07-10T10:11:12;2.75;;;1.33;;
52316;SDS011;38725;41.994;21.458;2022-07-10T10:13:40;4.57;;;1.58;;
52316;SDS011;38725;41.994;21.458;2022-07-10T10:16:07;2.08;;;1.50;;
52316;SDS011;38725;41.994;21.458;2022-07-10T10:18:34;3.85;;;1.63;;
52316;SDS011;38725;41.994;21.458;2022-07-10T10:21:01;4.13;;;1.38;;
52316;SDS011;38725;41.994;21.458;2022-07-10T10:23:29;3.42;;;1.35;;
52316;SDS011;38725;41.994;21.458;2022-07-10T10:25:56;2.75;;;1.40;;
52316;SDS011;38725;41.994;21.458;2022-07-10T10:28:23;3.58;;;1.15;;
52316;SDS011;38725;41.994;21.458;2022-07-10T10:30:55;3.97;;;1.30;;
52316;SDS011;38725;41.994;21.458;2022-07-10T10:36:00;2.03;;;1.30;;
52316;SDS011;38725;41.994;21.458;2022-07-10T10:41:24;2.25;;;1.20;;
52316;SDS011;38725;41.994;21.458;2022-07-10T10:46:32;2.35;;;1.10;;
52316;SDS011;38725;41.994;21.458;2022-07-10T10:49:05;3.05;;;1.10;;
52316;SDS011;38725;41.994;21.458;2022-07-10T10:54:16;3.55;;;1.27;;
52316;SDS011;38725;41.994;21.458;2022-07-10T10:56:42;4.07;;;1.25;;
52316;SDS011;38725;41.994;21.458;2022-07-10T10:59:09;2.17;;;1.20;;
52316;SDS011;38725;41.994;21.458;2022-07-10T11:01:35;3.03;;;1.08;;
52316;SDS011;38725;41.994;21.458;2022-07-10T11:06:50;4.25;;;1.17;;
52316;SDS011;38725;41.994;21.458;2022-07-10T11:14:24;2.88;;;1.02;;
52316;SDS011;38725;41.994;21.458;2022-07-10T11:16:54;3.90;;;1.33;;
52316;SDS011;38725;41.994;21.458;2022-07-10T11:19:21;5.63;;;1.60;;
52316;SDS011;38725;41.994;21.458;2022-07-10T11:21:47;2.42;;;1.60;;
52316;SDS011;38725;41.994;21.458;2022-07-10T11:29:19;1.73;;;1.02;;
52316;SDS011;38725;41.994;21.458;2022-07-10T11:31:55;1.73;;;0.90;;
52316;SDS011;38725;41.994;21.458;2022-07-10T11:34:21;1.48;;;1.10;;
52316;SDS011;38725;41.994;21.458;2022-07-10T11:36:48;2.22;;;0.90;;
52316;SDS011;38725;41.994;21.458;2022-07-10T11:39:14;2.92;;;1.30;;
52316;SDS011;38725;41.994;21.458;2022-07-10T11:41:44;2.90;;;1.00;;
52316;SDS011;38725;41.994;21.458;2022-07-10T11:44:17;3.45;;;0.95;;
52316;SDS011;38725;41.994;21.458;2022-07-10T11:46:46;1.73;;;0.93;;
52316;SDS011;38725;41.994;21.458;2022-07-10T11:49:14;1.80;;;1.15;;
52316;SDS011;38725;41.994;21.458;2022-07-10T11:51:41;2.70;;;1.10;;
52316;SDS011;38725;41.994;21.458;2022-07-10T11:54:17;1.10;;;0.95;;
52316;SDS011;38725;41.994;21.458;2022-07-10T11:56:52;1.88;;;0.90;;
52316;SDS011;38725;41.994;21.458;2022-07-10T11:59:23;2.10;;;1.30;;
52316;SDS011;38725;41.994;21.458;2022-07-10T12:01:50;1.55;;;0.98;;
52316;SDS011;38725;41.994;21.458;2022-07-10T12:04:17;1.70;;;1.00;;
52316;SDS011;38725;41.994;21.458;2022-07-10T12:06:44;1.75;;;1.00;;
52316;SDS011;38725;41.994;21.458;2022-07-10T12:09:12;2.58;;;1.00;;
52316;SDS011;38725;41.994;21.458;2022-07-10T12:11:39;1.20;;;0.80;;
52316;SDS011;38725;41.994;21.458;2022-07-10T12:14:09;3.80;;;1.00;;
52316;SDS011;38725;41.994;21.458;2022-07-10T12:16:37;1.52;;;1.10;;
52316;SDS011;38725;41.994;21.458;2022-07-10T12:19:04;2.67;;;1.00;;
52316;SDS011;38725;41.994;21.458;2022-07-10T12:21:32;2.78;;;1.10;;
52316;SDS011;38725;41.994;21.458;2022-07-10T12:23:58;2.20;;;1.20;;
52316;SDS011;38725;41.994;21.458;2022-07-10T12:26:34;2.88;;;0.90;;
52316;SDS011;38725;41.994;21.458;2022-07-10T12:29:01;5.43;;;1.00;;
52316;SDS011;38725;41.994;21.458;2022-07-10T12:31:28;1.17;;;0.85;;
52316;SDS011;38725;41.994;21.458;2022-07-10T12:34:00;3.88;;;1.48;;
52316;SDS011;38725;41.994;21.458;2022-07-10T12:36:43;3.95;;;1.20;;
52316;SDS011;38725;41.994;21.458;2022-07-10T12:39:10;7.00;;;0.90;;
52316;SDS011;38725;41.994;21.458;2022-07-10T12:44:38;1.85;;;0.90;;
52316;SDS011;38725;41.994;21.458;2022-07-10T12:47:05;1.73;;;0.93;;
52316;SDS011;38725;41.994;21.458;2022-07-10T12:49:49;3.03;;;1.30;;
52316;SDS011;38725;41.994;21.458;2022-07-10T12:52:19;2.67;;;1.23;;
52316;SDS011;38725;41.994;21.458;2022-07-10T12:54:46;4.32;;;1.00;;
52316;SDS011;38725;41.994;21.458;2022-07-10T12:57:12;2.38;;;1.27;;
52316;SDS011;38725;41.994;21.458;2022-07-10T12:59:38;1.88;;;1.15;;
52316;SDS011;38725;41.994;21.458;2022-07-10T13:02:40;2.33;;;1.23;;
52316;SDS011;38725;41.994;21.458;2022-07-10T13:04:59;5.03;;;1.60;;
52316;SDS011;38725;41.994;21.458;2022-07-10T13:07:28;3.33;;;1.65;;
52316;SDS011;38725;41.994;21.458;2022-07-10T13:09:55;4.00;;;1.88;;
52316;SDS011;38725;41.994;21.458;2022-07-10T13:12:21;3.30;;;1.50;;
52316;SDS011;38725;41.994;21.458;2022-07-10T13:14:48;4.45;;;1.60;;
52316;SDS011;38725;41.994;21.458;2022-07-10T13:17:14;6.57;;;1.27;;
52316;SDS011;38725;41.994;21.458;2022-07-10T13:19:40;2.42;;;1.20;;
52316;SDS011;38725;41.994;21.458;2022-07-10T13:22:06;3.45;;;1.30;;
52316;SDS011;38725;41.994;21.458;2022-07-10T13:24:32;1.92;;;1.30;;
52316;SDS011;38725;41.994;21.458;2022-07-10T13:26:59;2.05;;;1.10;;
52316;SDS011;38725;41.994;21.458;2022-07-10T13:29:25;3.63;;;1.40;;
52316;SDS011;38725;41.994;21.458;2022-07-10T13:31:51;2.58;;;1.23;;
52316;SDS011;38725;41.994;21.458;2022-07-10T13:34:17;6.53;;;1.30;;
52316;SDS011;38725;41.994;21.458;2022-07-10T13:36:43;2.78;;;1.38;;
52316;SDS011;38725;41.994;21.458;2022-07-10T13:39:10;3.67;;;1.35;;
52316;SDS011;38725;41.994;21.458;2022-07-10T13:41:36;2.67;;;1.30;;
52316;SDS011;38725;41.994;21.458;2022-07-10T13:44:03;2.45;;;1.15;;
52316;SDS011;38725;41.994;21.458;2022-07-10T13:46:29;1.80;;;1.20;;
52316;SDS011;38725;41.994;21.458;2022-07-10T13:48:55;3.15;;;1.00;;
52316;SDS011;38725;41.994;21.458;2022-07-10T13:51:21;6.35;;;1.20;;
52316;SDS011;38725;41.994;21.458;2022-07-10T13:53:47;1.45;;;0.88;;
52316;SDS011;38725;41.994;21.458;2022-07-10T13:56:14;1.33;;;1.10;;
52316;SDS011;38725;41.994;21.458;2022-07-10T13:58:40;7.10;;;1.20;;
52316;SDS011;38725;41.994;21.458;2022-07-10T14:01:06;2.03;;;1.20;;
52316;SDS011;38725;41.994;21.458;2022-07-10T14:03:32;1.98;;;1.10;;
52316;SDS011;38725;41.994;21.458;2022-07-10T14:05:58;2.05;;;1.30;;
52316;SDS011;38725;41.994;21.458;2022-07-10T14:08:25;1.55;;;1.23;;
52316;SDS011;38725;41.994;21.458;2022-07-10T14:10:51;4.15;;;1.50;;
52316;SDS011;38725;41.994;21.458;2022-07-10T14:13:17;1.42;;;1.13;;
52316;SDS011;38725;41.994;21.458;2022-07-10T14:15:43;2.03;;;1.40;;
52316;SDS011;38725;41.994;21.458;2022-07-10T14:18:10;3.83;;;1.40;;
52316;SDS011;38725;41.994;21.458;2022-07-10T14:20:36;5.00;;;1.50;;
52316;SDS011;38725;41.994;21.458;2022-07-10T14:23:21;4.80;;;1.60;;
52316;SDS011;38725;41.994;21.458;2022-07-10T14:25:47;3.25;;;1.38;;
52316;SDS011;38725;41.994;21.458;2022-07-10T14:28:14;4.30;;;1.80;;
52316;SDS011;38725;41.994;21.458;2022-07-10T14:30:40;4.15;;;1.60;;
52316;SDS011;38725;41.994;21.458;2022-07-10T14:33:07;4.65;;;1.45;;
52316;SDS011;38725;41.994;21.458;2022-07-10T14:35:33;2.88;;;1.40;;
52316;SDS011;38725;41.994;21.458;2022-07-10T14:38:00;1.80;;;1.13;;
52316;SDS011;38725;41.994;21.458;2022-07-10T14:40:26;2.38;;;1.48;;
52316;SDS011;38725;41.994;21.458;2022-07-10T14:42:52;2.25;;;1.50;;
52316;SDS011;38725;41.994;21.458;2022-07-10T14:45:21;3.88;;;1.40;;
52316;SDS011;38725;41.994;21.458;2022-07-10T14:47:49;3.10;;;1.88;;
52316;SDS011;38725;41.994;21.458;2022-07-10T14:50:15;3.55;;;1.58;;
52316;SDS011;38725;41.994;21.458;2022-07-10T14:52:42;2.38;;;1.30;;
52316;SDS011;38725;41.994;21.458;2022-07-10T14:55:08;2.78;;;1.55;;
52316;SDS011;38725;41.994;21.458;2022-07-10T14:57:34;3.85;;;1.50;;
52316;SDS011;38725;41.994;21.458;2022-07-10T15:00:00;1.92;;;1.50;;
52316;SDS011;38725;41.994;21.458;2022-07-10T15:02:27;4.07;;;1.77;;
52316;SDS011;38725;41.994;21.458;2022-07-10T15:04:53;3.60;;;2.42;;